Time;durP1;ratioP1;P1;durP2;ratioP2;P2;SDS_P1;SDS_P2;PMS_P1;PMS_P2;Temp;Humidity;BMP_temperature;BMP_pressure;BME280_temperature;BME280_humidity;BME280_pressure;Samples;Min_cycle;Max_cycle;Signal;HPM_P1;HPM_P2
2022/04/06 08:44:26;;;;;;;22.33;2.75;;;10.70;99.90;;;;;;5054022;28;20389;-80
2022/04/06 08:46:54;;;;;;;17.10;3.20;;;10.70;99.90;;;;;;5046812;28;20040;-78
2022/04/06 08:49:24;;;;;;;19.00;2.80;;;10.70;99.90;;;;;;5046676;28;20359;-81
2022/04/06 08:51:51;;;;;;;17.27;3.25;;;10.60;99.90;;;;;;5047993;28;20033;-77
2022/04/06 08:54:16;;;;;;;12.57;3.30;;;10.60;99.90;;;;;;5047706;28;20040;-82
2022/04/06 08:56:43;;;;;;;22.05;3.47;;;10.60;99.90;;;;;;5039950;28;20108;-80
2022/04/06 08:59:09;;;;;;;23.20;3.85;;;10.60;99.90;;;;;;5046899;28;20025;-80
2022/04/06 09:01:34;;;;;;;22.02;4.18;;;10.70;99.90;;;;;;5047958;28;20058;-80
2022/04/06 09:04:00;;;;;;;24.33;3.55;;;10.70;99.90;;;;;;5046840;28;20034;-81
2022/04/06 09:06:29;;;;;;;21.05;3.28;;;10.70;99.90;;;;;;5046595;28;20406;-81
2022/04/06 09:08:55;;;;;;;20.52;3.38;;;10.70;99.90;;;;;;5047722;28;20020;-80
2022/04/06 09:11:21;;;;;;;30.65;4.80;;;10.70;99.90;;;;;;5047387;28;20109;-80
2022/04/06 09:13:56;;;;;;;18.25;4.25;;;10.80;99.90;;;;;;5047196;28;20167;-80
2022/04/06 09:16:24;;;;;;;15.50;3.25;;;11.00;99.90;;;;;;5047387;28;20025;-80
2022/04/06 09:18:50;;;;;;;25.98;3.67;;;11.20;99.90;;;;;;5047791;28;20028;-81
2022/04/06 09:21:17;;;;;;;17.05;2.72;;;11.40;99.40;;;;;;5047681;28;20025;-80
2022/04/06 09:23:48;;;;;;;16.23;3.08;;;11.50;99.50;;;;;;5061557;22;20490;-80
2022/04/06 09:26:17;;;;;;;16.10;3.28;;;11.60;99.40;;;;;;5026831;28;20501;-80
2022/04/06 09:28:46;;;;;;;8.70;2.55;;;11.70;98.80;;;;;;5027504;28;20466;-82
2022/04/06 09:31:19;;;;;;;18.77;3.45;;;11.70;98.80;;;;;;5026974;28;20022;-81
2022/04/06 09:34:00;;;;;;;17.08;3.28;;;11.70;98.50;;;;;;5026900;28;20112;-81
2022/04/06 09:36:28;;;;;;;25.27;3.72;;;11.60;98.70;;;;;;5031921;28;20544;-80
2022/04/06 09:38:54;;;;;;;19.30;3.15;;;11.50;98.90;;;;;;5032807;28;20100;-82
2022/04/06 09:41:19;;;;;;;11.35;2.53;;;11.50;99.90;;;;;;5032550;28;20061;-81
2022/04/06 09:43:50;;;;;;;14.60;2.53;;;11.60;99.90;;;;;;5028074;28;20030;-80
2022/04/06 09:49:09;;;;;;;15.47;2.63;;;11.20;99.90;;;;;;5032894;28;20397;-81
2022/04/06 09:51:36;;;;;;;22.58;4.18;;;11.10;99.90;;;;;;5024974;28;20075;-81
2022/04/06 09:54:06;;;;;;;19.10;3.75;;;11.10;99.90;;;;;;5024255;28;20030;-82
2022/04/06 09:56:33;;;;;;;12.18;2.72;;;11.10;99.90;;;;;;5013186;28;20034;-81
2022/04/06 09:59:01;;;;;;;23.45;3.00;;;11.00;99.90;;;;;;5019504;28;20025;-80
2022/04/06 10:01:32;;;;;;;12.50;2.38;;;10.90;99.90;;;;;;5019884;28;20113;-79
2022/04/06 10:04:03;;;;;;;12.50;2.17;;;10.90;99.90;;;;;;5014357;28;20038;-81
2022/04/06 10:06:40;;;;;;;6.32;1.15;;;10.80;99.90;;;;;;5011691;28;20506;-79
2022/04/06 10:09:08;;;;;;;8.15;1.58;;;10.80;99.90;;;;;;5023428;28;20037;-79
2022/04/06 10:11:35;;;;;;;14.75;2.72;;;10.80;99.90;;;;;;5013313;28;20050;-79
2022/04/06 10:14:04;;;;;;;18.00;2.95;;;10.80;99.90;;;;;;5015823;28;20026;-80
2022/04/06 10:16:38;;;;;;;9.95;2.20;;;10.70;99.90;;;;;;5015300;28;20410;-79
2022/04/06 10:19:06;;;;;;;9.18;1.60;;;10.60;99.90;;;;;;5011816;28;20116;-79
2022/04/06 10:21:56;;;;;;;6.45;1.70;;;10.60;99.90;;;;;;5018552;28;20018;-79
2022/04/06 11:23:55;;;;;;;0.63;0.50;;;10.90;99.90;;;;;;5743635;22;20042;-79
2022/04/06 11:26:21;;;;;;;0.77;0.50;;;10.80;99.90;;;;;;5010956;28;20032;-79
2022/04/06 11:28:58;;;;;;;3.63;0.68;;;10.70;99.90;;;;;;5010618;28;20022;-81
2022/04/06 11:31:25;;;;;;;2.88;0.63;;;10.70;99.90;;;;;;5011894;28;20029;-83
2022/04/06 11:33:50;;;;;;;8.38;1.15;;;10.70;99.90;;;;;;5011380;28;20112;-79
2022/04/06 11:36:18;;;;;;;9.60;2.20;;;10.70;99.90;;;;;;5011051;28;20105;-79
2022/04/06 11:38:53;;;;;;;12.70;1.60;;;10.70;99.90;;;;;;5011167;28;20017;-82
2022/04/06 11:41:19;;;;;;;5.85;1.52;;;10.70;99.90;;;;;;5009542;28;20125;-78
2022/04/06 11:43:46;;;;;;;9.65;1.73;;;10.70;99.90;;;;;;5010982;28;20398;-83
2022/04/06 11:46:12;;;;;;;12.18;2.28;;;10.60;99.90;;;;;;5009769;28;20466;-82
2022/04/06 11:48:43;;;;;;;17.10;2.42;;;10.60;99.90;;;;;;5011055;28;20049;-81
2022/04/06 11:51:09;;;;;;;15.27;2.28;;;10.60;99.90;;;;;;5011074;28;20030;-80
2022/04/06 11:53:36;;;;;;;17.25;2.70;;;10.60;99.90;;;;;;5010530;28;20030;-79
2022/04/06 11:56:03;;;;;;;15.20;2.38;;;10.70;99.90;;;;;;5011614;28;20097;-80
2022/04/06 11:58:40;;;;;;;9.63;1.50;;;10.70;99.90;;;;;;5010811;28;20057;-79
2022/04/06 12:01:16;;;;;;;11.98;1.60;;;10.80;99.90;;;;;;5009410;28;20018;-81
2022/04/06 12:03:43;;;;;;;19.30;2.58;;;10.80;99.90;;;;;;5010585;28;20030;-81
2022/04/06 12:06:11;;;;;;;10.90;1.92;;;10.70;99.90;;;;;;5011013;28;20552;-79
2022/04/06 12:08:39;;;;;;;15.55;2.70;;;10.60;99.90;;;;;;5009234;28;20080;-79
2022/04/06 12:11:04;;;;;;;17.90;2.70;;;10.60;99.90;;;;;;5010489;28;20483;-79
2022/04/06 12:13:33;;;;;;;11.50;2.30;;;10.60;99.90;;;;;;5010400;28;20033;-79
2022/04/06 12:15:59;;;;;;;8.55;1.48;;;10.60;99.90;;;;;;5010933;28;20056;-79
2022/04/06 12:18:27;;;;;;;9.75;1.80;;;10.70;99.90;;;;;;5010078;28;20064;-80
2022/04/06 12:20:54;;;;;;;16.20;2.38;;;10.60;99.90;;;;;;5010272;28;20026;-78
2022/04/06 12:23:23;;;;;;;14.02;2.53;;;10.70;99.90;;;;;;5024225;22;20085;-78
2022/04/06 12:25:49;;;;;;;13.93;2.63;;;10.60;99.90;;;;;;4990664;28;20034;-79
2022/04/06 12:28:21;;;;;;;10.45;2.95;;;10.60;99.90;;;;;;4990748;28;20090;-80
2022/04/06 12:31:00;;;;;;;17.35;3.13;;;10.60;99.90;;;;;;4984252;28;20035;-80
2022/04/06 12:33:32;;;;;;;22.05;2.30;;;10.60;99.90;;;;;;4990308;28;20077;-79
2022/04/06 12:36:18;;;;;;;15.75;2.78;;;10.60;99.90;;;;;;4966416;28;20023;-79
2022/04/06 12:38:56;;;;;;;17.33;2.60;;;10.60;99.90;;;;;;4966284;28;20017;-79
2022/04/06 12:41:23;;;;;;;18.25;3.00;;;10.60;99.90;;;;;;4979300;28;20023;-79
2022/04/06 12:43:49;;;;;;;19.65;3.25;;;10.60;99.90;;;;;;4986993;28;20130;-79
2022/04/06 12:46:41;;;;;;;33.42;3.42;;;10.60;99.90;;;;;;4972582;28;20027;-79
2022/04/06 12:49:20;;;;;;;;;;;10.50;99.90;;;;;;4973142;28;20018;-79
2022/04/06 12:51:46;;;;;;;19.08;2.78;;;10.60;99.90;;;;;;4983857;28;19913;-79
2022/04/06 12:54:13;;;;;;;23.17;3.72;;;10.60;99.90;;;;;;4970287;28;20038;-78
2022/04/06 12:56:38;;;;;;;17.35;3.35;;;10.70;99.90;;;;;;4980104;28;20026;-79
2022/04/06 12:59:11;;;;;;;20.33;3.10;;;10.70;99.90;;;;;;4965497;28;20498;-79
2022/04/06 13:01:47;;;;;;;16.20;2.72;;;10.70;99.90;;;;;;4955684;28;20110;-77
2022/04/06 13:04:13;;;;;;;24.80;3.35;;;10.70;99.90;;;;;;4965074;28;20057;-80
2022/04/06 13:06:40;;;;;;;23.00;4.22;;;10.80;99.90;;;;;;4973399;28;20050;-80
2022/04/06 13:09:13;;;;;;;21.90;3.72;;;11.00;99.90;;;;;;4962794;28;20034;-77
2022/04/06 13:11:38;;;;;;;26.30;4.07;;;11.10;99.90;;;;;;4961274;28;20070;-77
2022/04/06 13:14:04;;;;;;;21.33;3.60;;;11.30;99.90;;;;;;4958276;28;20059;-80
2022/04/06 13:16:30;;;;;;;8.80;2.00;;;11.60;99.90;;;;;;4964989;28;20384;-80
2022/04/06 13:18:56;;;;;;;19.80;2.55;;;11.70;99.50;;;;;;4956897;28;20027;-79
2022/04/06 13:21:24;;;;;;;18.77;3.90;;;11.80;99.90;;;;;;4971845;28;20035;-80
2022/04/06 13:23:50;;;;;;;21.92;2.95;;;11.90;99.90;;;;;;4997768;23;20514;-81
2022/04/06 13:26:17;;;;;;;17.00;3.33;;;12.00;99.00;;;;;;4990444;28;20038;-81
2022/04/06 13:28:44;;;;;;;18.13;2.60;;;11.90;98.80;;;;;;4990699;28;20113;-79
2022/04/06 13:31:10;;;;;;;20.38;2.33;;;12.00;97.60;;;;;;4994436;28;20475;-82
2022/04/06 13:33:35;;;;;;;14.43;2.85;;;12.00;98.90;;;;;;4994467;28;20049;-81
2022/04/06 13:36:01;;;;;;;17.80;2.20;;;12.30;97.00;;;;;;4994508;28;20022;-80
2022/04/06 13:38:28;;;;;;;12.05;3.13;;;12.60;96.60;;;;;;4984778;28;20475;-81
2022/04/06 13:40:54;;;;;;;19.23;2.25;;;12.70;95.70;;;;;;4986773;28;20021;-79
2022/04/06 13:43:20;;;;;;;13.82;1.90;;;13.30;94.80;;;;;;4984442;28;20479;-83
2022/04/06 13:45:46;;;;;;;13.88;2.22;;;13.80;92.70;;;;;;4985315;28;20672;-88
2022/04/06 13:48:12;;;;;;;19.63;3.28;;;14.00;91.50;;;;;;4988411;28;20022;-81
2022/04/06 13:50:38;;;;;;;13.38;1.80;;;13.90;90.40;;;;;;4985865;28;20023;-80
2022/04/06 13:53:05;;;;;;;11.63;2.22;;;14.00;90.90;;;;;;4985981;28;20038;-81
2022/04/06 13:55:31;;;;;;;22.55;4.20;;;14.10;91.60;;;;;;4993009;28;20027;-80
2022/04/06 13:57:57;;;;;;;13.93;2.38;;;14.60;88.80;;;;;;4993618;28;20418;-80
2022/04/06 14:00:23;;;;;;;13.75;2.67;;;16.00;86.00;;;;;;4993655;28;20518;-81
2022/04/06 14:02:51;;;;;;;5.93;1.65;;;16.60;80.00;;;;;;4985375;28;20157;-81
2022/04/06 14:05:19;;;;;;;14.27;1.92;;;17.10;78.80;;;;;;4993537;28;20415;-81
2022/04/06 14:07:46;;;;;;;11.15;2.33;;;16.70;75.90;;;;;;4984633;28;20019;-80
2022/04/06 14:10:12;;;;;;;15.05;2.65;;;16.00;77.30;;;;;;4983776;28;20018;-79
2022/04/06 14:12:38;;;;;;;18.80;2.45;;;15.40;81.40;;;;;;4990430;28;20034;-81
2022/04/06 14:15:05;;;;;;;15.48;2.42;;;14.50;85.10;;;;;;4993235;28;20022;-82
2022/04/06 14:17:32;;;;;;;15.40;2.38;;;14.30;87.60;;;;;;4993286;28;20061;-81
2022/04/06 14:19:58;;;;;;;15.35;2.55;;;13.80;88.70;;;;;;4993936;28;20026;-80
2022/04/06 14:22:24;;;;;;;10.95;2.05;;;13.50;90.30;;;;;;4994099;28;20034;-81
2022/04/06 15:24:23;;;;;;;20.23;3.58;;;12.80;92.50;;;;;;5603752;22;20057;-81
2022/04/06 15:26:49;;;;;;;18.95;3.72;;;12.50;92.20;;;;;;4992106;28;20026;-78
2022/04/06 15:29:15;;;;;;;18.25;3.67;;;12.20;93.40;;;;;;4993582;28;20030;-79
2022/04/06 15:31:41;;;;;;;26.55;3.03;;;12.10;93.20;;;;;;4993442;28;20030;-81
2022/04/06 15:34:07;;;;;;;22.33;3.05;;;12.00;93.20;;;;;;4997999;28;20022;-81
2022/04/06 15:39:17;;;;;;;29.67;2.67;;;12.70;92.30;;;;;;5011890;28;20036;-81
2022/04/06 15:41:43;;;;;;;17.48;2.78;;;12.70;92.40;;;;;;5011876;28;20030;-80
2022/04/06 15:44:09;;;;;;;22.00;3.40;;;12.40;91.80;;;;;;5011798;28;20037;-80
2022/04/06 15:46:34;;;;;;;20.02;2.97;;;12.50;92.80;;;;;;5011640;28;20030;-82
2022/04/06 15:49:00;;;;;;;26.67;3.35;;;12.50;92.30;;;;;;5011757;28;20029;-81
2022/04/06 15:51:26;;;;;;;13.38;1.92;;;12.40;92.70;;;;;;5003528;28;20030;-81
2022/04/06 15:53:52;;;;;;;15.35;3.28;;;12.20;93.10;;;;;;5009413;28;20057;-80
2022/04/06 15:56:17;;;;;;;26.63;4.07;;;12.20;92.70;;;;;;5011445;28;20082;-79
2022/04/06 15:58:43;;;;;;;17.05;2.90;;;12.20;93.40;;;;;;5011611;28;20025;-81
2022/04/06 16:01:09;;;;;;;25.83;3.65;;;12.00;93.70;;;;;;5011202;28;20048;-81
2022/04/06 16:03:35;;;;;;;24.55;3.10;;;11.90;93.80;;;;;;5011144;28;20096;-80
2022/04/06 16:06:01;;;;;;;29.23;4.03;;;11.80;94.40;;;;;;5011190;28;20021;-82
2022/04/06 16:08:27;;;;;;;19.75;2.70;;;11.70;94.50;;;;;;5010977;28;20087;-81
2022/04/06 16:10:53;;;;;;;21.77;3.63;;;11.60;95.00;;;;;;5010671;28;20521;-81
2022/04/06 16:13:18;;;;;;;20.80;3.45;;;11.60;94.80;;;;;;5011182;28;20033;-81
2022/04/06 16:15:45;;;;;;;25.85;3.42;;;11.60;95.20;;;;;;5011141;28;20033;-81
2022/04/06 16:18:11;;;;;;;19.92;3.38;;;11.60;95.20;;;;;;5011076;28;20029;-80
2022/04/06 16:20:37;;;;;;;31.55;4.65;;;11.70;95.10;;;;;;5011336;28;20026;-82
2022/04/06 16:23:03;;;;;;;20.83;3.47;;;11.70;95.00;;;;;;5010975;28;20105;-82
2022/04/06 16:25:29;;;;;;;26.40;3.67;;;11.70;95.40;;;;;;5010824;28;20085;-80
2022/04/06 16:27:57;;;;;;;20.20;3.75;;;11.80;95.00;;;;;;5011192;28;20028;-80
2022/04/06 16:30:23;;;;;;;23.23;3.00;;;11.80;94.90;;;;;;5011083;28;20025;-82
2022/04/06 16:32:49;;;;;;;22.10;3.33;;;11.80;95.00;;;;;;5009470;28;20065;-82
2022/04/06 16:35:15;;;;;;;21.13;3.53;;;11.90;94.90;;;;;;5002715;28;20070;-79
2022/04/06 16:37:40;;;;;;;23.33;3.35;;;12.00;95.10;;;;;;5000597;28;20030;-77
2022/04/06 16:40:07;;;;;;;24.70;3.38;;;12.00;95.10;;;;;;5003295;28;20053;-79
2022/04/06 16:42:32;;;;;;;24.17;3.38;;;12.00;94.90;;;;;;5004922;28;20557;-81
2022/04/06 16:45:00;;;;;;;26.88;3.90;;;11.80;95.00;;;;;;5004764;28;20033;-78
2022/04/06 16:47:26;;;;;;;25.85;3.85;;;11.70;95.60;;;;;;5004558;28;20538;-80
2022/04/06 16:52:43;;;;;;;22.05;4.13;;;11.70;96.00;;;;;;5001224;28;20044;-81
2022/04/06 16:55:13;;;;;;;23.40;3.67;;;11.80;95.60;;;;;;5000622;28;20147;-80
2022/04/06 16:57:39;;;;;;;22.25;4.40;;;11.70;95.70;;;;;;4996718;28;20029;-82
2022/04/06 17:00:09;;;;;;;23.13;3.95;;;11.50;95.90;;;;;;4998492;28;20050;-80
2022/04/06 17:02:35;;;;;;;31.67;3.60;;;11.50;96.60;;;;;;4996862;28;20132;-81
2022/04/06 17:05:02;;;;;;;27.90;3.92;;;11.60;96.20;;;;;;4992953;28;20042;-80
2022/04/06 17:07:29;;;;;;;30.33;4.32;;;11.50;95.70;;;;;;5013852;28;20026;-80
2022/04/06 17:09:55;;;;;;;20.15;3.67;;;11.50;95.90;;;;;;5013875;28;20030;-80
2022/04/06 17:12:27;;;;;;;22.40;3.83;;;11.40;95.40;;;;;;5006378;28;20025;-80
2022/04/06 17:14:52;;;;;;;27.55;4.45;;;11.40;95.70;;;;;;5014009;28;20024;-79
2022/04/06 17:17:18;;;;;;;25.45;3.60;;;11.40;95.70;;;;;;5014313;28;20622;-81
2022/04/06 17:19:44;;;;;;;30.33;3.70;;;11.40;95.20;;;;;;5014201;28;20491;-80
2022/04/06 17:22:11;;;;;;;19.70;3.33;;;11.40;95.30;;;;;;5013960;28;20085;-79
2022/04/06 18:24:10;;;;;;;24.75;3.80;;;10.90;97.00;;;;;;5794700;22;20041;-78
2022/04/06 18:26:36;;;;;;;27.25;3.67;;;10.80;97.20;;;;;;5012109;28;20076;-78
2022/04/06 18:29:01;;;;;;;23.98;4.30;;;10.80;97.30;;;;;;5011698;28;20478;-76
2022/04/06 18:31:27;;;;;;;23.40;3.55;;;10.80;97.20;;;;;;5012346;28;20018;-78
2022/04/06 18:33:53;;;;;;;20.90;4.28;;;10.80;97.40;;;;;;5010578;28;20031;-77
2022/04/06 18:36:18;;;;;;;27.00;3.95;;;10.80;97.40;;;;;;5011937;28;20026;-78
2022/04/06 18:38:44;;;;;;;26.58;4.50;;;10.80;97.30;;;;;;5011847;28;20024;-78
2022/04/06 18:41:13;;;;;;;22.50;3.78;;;10.80;97.30;;;;;;5011100;28;20052;-77
2022/04/06 18:43:40;;;;;;;28.80;3.83;;;10.80;97.10;;;;;;5011068;28;20042;-77
2022/04/06 18:46:06;;;;;;;22.10;3.47;;;10.80;97.10;;;;;;5010428;28;20014;-77
2022/04/06 18:48:35;;;;;;;35.15;3.40;;;10.80;96.90;;;;;;5007527;28;20060;-77
2022/04/06 18:51:02;;;;;;;25.35;3.97;;;10.80;97.10;;;;;;5005731;28;20029;-78
2022/04/06 18:53:28;;;;;;;23.08;3.38;;;10.80;97.30;;;;;;5012100;28;20104;-78
2022/04/06 18:55:55;;;;;;;20.27;3.50;;;10.80;97.00;;;;;;5011322;28;20022;-78
2022/04/06 18:58:21;;;;;;;23.70;4.47;;;10.80;97.20;;;;;;5011844;28;20017;-78
2022/04/06 19:00:47;;;;;;;20.85;2.97;;;10.80;96.60;;;;;;5011918;28;20037;-78
2022/04/06 19:03:13;;;;;;;16.63;2.97;;;10.80;96.90;;;;;;5001456;28;20034;-76
2022/04/06 19:05:40;;;;;;;23.83;4.20;;;10.70;96.80;;;;;;5007490;28;20022;-77
2022/04/06 19:08:06;;;;;;;23.13;3.30;;;10.60;96.80;;;;;;5010305;28;20014;-78
2022/04/06 19:10:32;;;;;;;18.23;3.08;;;10.60;96.90;;;;;;5003540;28;20022;-81
2022/04/06 19:13:01;;;;;;;23.30;3.72;;;10.60;97.00;;;;;;5010747;28;20171;-78
2022/04/06 19:15:27;;;;;;;22.40;4.40;;;10.60;97.10;;;;;;5011246;28;20018;-78
2022/04/06 19:17:53;;;;;;;30.50;3.58;;;10.70;97.10;;;;;;5011676;28;20044;-79
2022/04/06 19:20:19;;;;;;;30.95;4.65;;;10.70;97.20;;;;;;5002206;28;20058;-78
2022/04/06 19:22:45;;;;;;;32.88;4.97;;;10.70;97.00;;;;;;5006959;28;20093;-77
2022/04/06 19:25:11;;;;;;;26.77;3.65;;;10.70;97.00;;;;;;5007169;28;20037;-79
2022/04/06 19:27:38;;;;;;;24.10;4.97;;;10.70;97.00;;;;;;5006597;28;20026;-78
2022/04/06 19:30:06;;;;;;;30.05;4.13;;;10.70;97.40;;;;;;5006573;28;20022;-77
2022/04/06 19:32:33;;;;;;;27.05;5.72;;;10.70;97.10;;;;;;5007203;28;20045;-78
2022/04/06 19:34:59;;;;;;;28.80;4.43;;;10.70;96.80;;;;;;5006240;28;20025;-78
2022/04/06 19:37:25;;;;;;;25.73;3.58;;;10.70;96.70;;;;;;5007063;28;20030;-77
2022/04/06 19:39:51;;;;;;;31.48;4.35;;;10.70;96.90;;;;;;5007005;28;20546;-78
2022/04/06 19:42:17;;;;;;;30.10;4.15;;;10.70;96.60;;;;;;5007145;28;20113;-78
2022/04/06 19:44:43;;;;;;;25.98;4.70;;;10.80;96.60;;;;;;5005961;28;20034;-77
2022/04/06 19:47:09;;;;;;;32.15;4.88;;;10.80;96.60;;;;;;5006805;28;20363;-78
2022/04/06 19:49:35;;;;;;;35.65;5.30;;;10.80;96.90;;;;;;5004796;28;20037;-78
2022/04/06 19:52:04;;;;;;;20.13;3.08;;;10.80;96.70;;;;;;5004125;28;20026;-79
2022/04/06 20:54:05;;;;;;;31.92;4.93;;;10.50;97.70;;;;;;5930817;22;20447;-79
2022/04/06 20:56:31;;;;;;;31.77;4.30;;;10.40;97.90;;;;;;4999587;28;20030;-80
2022/04/06 20:58:57;;;;;;;36.85;5.07;;;10.40;98.10;;;;;;4999026;28;20105;-79
2022/04/06 21:01:24;;;;;;;30.42;4.32;;;10.30;98.30;;;;;;4997801;28;20168;-79
2022/04/06 21:03:50;;;;;;;29.55;4.90;;;10.30;97.90;;;;;;4996703;28;20034;-78
2022/04/06 21:06:16;;;;;;;30.50;4.28;;;10.20;97.10;;;;;;4996717;28;20026;-78
2022/04/06 21:08:41;;;;;;;23.15;4.35;;;10.30;96.90;;;;;;4990025;28;20042;-80
2022/04/06 21:11:07;;;;;;;23.45;2.97;;;10.40;96.00;;;;;;4985888;28;20609;-80
2022/04/06 21:13:33;;;;;;;27.58;3.25;;;10.40;96.20;;;;;;4988860;28;20021;-81
2022/04/06 21:16:06;;;;;;;22.05;3.30;;;10.40;96.20;;;;;;4985241;28;20021;-80
2022/04/06 21:18:33;;;;;;;25.95;4.10;;;10.20;96.30;;;;;;4983743;28;20070;-82
2022/04/06 21:20:58;;;;;;;29.05;3.70;;;10.40;96.50;;;;;;4983175;28;20034;-79
2022/04/06 21:23:24;;;;;;;20.67;4.35;;;10.20;96.70;;;;;;4984661;28;20383;-78
2022/04/06 21:25:50;;;;;;;27.25;3.45;;;10.20;96.60;;;;;;4978681;28;20033;-79
2022/04/06 21:28:16;;;;;;;28.27;3.92;;;10.20;97.00;;;;;;4978029;28;20446;-81
2022/04/06 21:30:42;;;;;;;26.23;3.85;;;10.30;97.30;;;;;;4971772;28;20226;-79
2022/04/06 21:33:08;;;;;;;28.65;5.32;;;10.30;97.50;;;;;;4971769;28;20030;-78
2022/04/06 21:35:33;;;;;;;31.70;4.55;;;10.30;97.50;;;;;;4974124;28;20121;-79
2022/04/06 21:37:59;;;;;;;27.15;4.32;;;10.40;97.70;;;;;;4973495;28;20704;-78
2022/04/06 21:40:24;;;;;;;32.58;4.32;;;10.40;97.80;;;;;;4973270;28;20034;-80
2022/04/06 21:42:50;;;;;;;37.85;5.05;;;10.40;97.80;;;;;;4973400;28;20042;-81
2022/04/06 21:45:16;;;;;;;27.92;4.45;;;10.50;97.90;;;;;;4976666;28;20084;-79
2022/04/06 21:47:41;;;;;;;33.97;4.68;;;10.50;97.80;;;;;;4972225;28;20026;-81
2022/04/06 21:50:08;;;;;;;33.03;4.78;;;10.60;97.90;;;;;;4972789;28;20598;-80
2022/04/06 21:52:33;;;;;;;40.28;8.50;;;10.60;97.70;;;;;;4978521;28;20026;-79
2022/04/06 21:54:59;;;;;;;34.58;5.68;;;10.60;97.50;;;;;;4971463;28;20454;-79
2022/04/06 21:57:25;;;;;;;30.38;5.43;;;10.70;97.50;;;;;;4987387;28;20109;-83
2022/04/06 21:59:51;;;;;;;34.78;4.68;;;10.70;97.20;;;;;;5005974;28;20036;-82
2022/04/06 22:02:16;;;;;;;36.17;6.13;;;10.70;97.10;;;;;;5004835;28;20482;-84
2022/04/06 22:04:42;;;;;;;34.45;6.35;;;10.70;96.90;;;;;;5004766;28;20441;-86
2022/04/06 22:07:08;;;;;;;36.38;4.88;;;10.70;96.60;;;;;;4997023;28;20023;-84
2022/04/06 22:09:34;;;;;;;36.72;5.18;;;10.80;96.50;;;;;;5001501;28;20030;-86
2022/04/06 22:12:00;;;;;;;31.13;4.68;;;10.80;96.50;;;;;;5001489;28;20387;-86
2022/04/06 22:14:26;;;;;;;33.85;5.85;;;10.80;96.00;;;;;;5012536;28;20022;-87
2022/04/06 22:16:52;;;;;;;38.30;4.90;;;10.80;96.00;;;;;;5012536;28;20133;-84
2022/04/06 22:19:17;;;;;;;41.35;5.07;;;10.80;95.70;;;;;;5013215;28;20030;-86
2022/04/06 22:21:43;;;;;;;28.65;5.43;;;10.80;95.50;;;;;;5012292;28;20028;-86
2022/04/06 22:24:09;;;;;;;30.73;5.70;;;10.90;95.60;;;;;;5024989;23;20347;-79
